sensor_id;sensor_type;location;lat;lon;timestamp;P1;durP1;ratioP1;P2;durP2;ratioP2
52530;SDS011;38441;52.894;6.040;2023-02-10T00:01:44;16.15;;;4.00;;
52530;SDS011;38441;52.894;6.040;2023-02-10T00:04:13;15.80;;;3.08;;
52530;SDS011;38441;52.894;6.040;2023-02-10T00:06:49;10.88;;;2.97;;
52530;SDS011;38441;52.894;6.040;2023-02-10T00:09:18;15.52;;;4.00;;
52530;SDS011;38441;52.894;6.040;2023-02-10T00:11:47;11.55;;;3.35;;
52530;SDS011;38441;52.894;6.040;2023-02-10T00:14:28;11.52;;;2.85;;
52530;SDS011;38441;52.894;6.040;2023-02-10T00:16:57;14.52;;;2.95;;
52530;SDS011;38441;52.894;6.040;2023-02-10T00:19:26;14.63;;;3.55;;
52530;SDS011;38441;52.894;6.040;2023-02-10T00:21:53;13.52;;;3.58;;
52530;SDS011;38441;52.894;6.040;2023-02-10T00:24:20;11.73;;;2.97;;
52530;SDS011;38441;52.894;6.040;2023-02-10T00:26:46;12.93;;;3.83;;
52530;SDS011;38441;52.894;6.040;2023-02-10T00:29:15;13.43;;;3.17;;
52530;SDS011;38441;52.894;6.040;2023-02-10T00:34:11;11.68;;;2.95;;
52530;SDS011;38441;52.894;6.040;2023-02-10T00:36:37;17.65;;;3.53;;
52530;SDS011;38441;52.894;6.040;2023-02-10T00:39:04;14.35;;;3.30;;
52530;SDS011;38441;52.894;6.040;2023-02-10T00:41:32;10.68;;;3.55;;
52530;SDS011;38441;52.894;6.040;2023-02-10T00:44:03;10.55;;;2.72;;
52530;SDS011;38441;52.894;6.040;2023-02-10T00:46:35;7.35;;;2.50;;
52530;SDS011;38441;52.894;6.040;2023-02-10T00:49:04;8.15;;;2.25;;
52530;SDS011;38441;52.894;6.040;2023-02-10T00:51:35;9.85;;;2.75;;
52530;SDS011;38441;52.894;6.040;2023-02-10T00:54:13;10.18;;;2.78;;
52530;SDS011;38441;52.894;6.040;2023-02-10T00:56:42;9.98;;;2.38;;
52530;SDS011;38441;52.894;6.040;2023-02-10T00:59:14;17.25;;;3.17;;
52530;SDS011;38441;52.894;6.040;2023-02-10T01:01:48;12.77;;;2.65;;
52530;SDS011;38441;52.894;6.040;2023-02-10T01:04:27;12.40;;;3.05;;
52530;SDS011;38441;52.894;6.040;2023-02-10T01:06:54;8.68;;;2.63;;
52530;SDS011;38441;52.894;6.040;2023-02-10T01:09:23;12.43;;;2.90;;
52530;SDS011;38441;52.894;6.040;2023-02-10T01:11:49;12.10;;;2.90;;
52530;SDS011;38441;52.894;6.040;2023-02-10T01:14:15;8.15;;;2.63;;
52530;SDS011;38441;52.894;6.040;2023-02-10T01:16:41;10.80;;;3.10;;
52530;SDS011;38441;52.894;6.040;2023-02-10T01:19:08;11.98;;;2.85;;
52530;SDS011;38441;52.894;6.040;2023-02-10T01:21:34;14.00;;;3.20;;
52530;SDS011;38441;52.894;6.040;2023-02-10T01:24:02;11.82;;;3.10;;
52530;SDS011;38441;52.894;6.040;2023-02-10T01:26:28;15.25;;;3.38;;
52530;SDS011;38441;52.894;6.040;2023-02-10T01:28:54;10.52;;;3.00;;
52530;SDS011;38441;52.894;6.040;2023-02-10T01:31:20;8.90;;;2.90;;
52530;SDS011;38441;52.894;6.040;2023-02-10T01:33:49;14.55;;;3.92;;
52530;SDS011;38441;52.894;6.040;2023-02-10T01:36:20;12.30;;;3.33;;
52530;SDS011;38441;52.894;6.040;2023-02-10T01:38:48;16.30;;;3.95;;
52530;SDS011;38441;52.894;6.040;2023-02-10T01:41:15;15.18;;;3.85;;
52530;SDS011;38441;52.894;6.040;2023-02-10T01:43:53;13.48;;;3.10;;
52530;SDS011;38441;52.894;6.040;2023-02-10T01:46:19;10.77;;;3.30;;
52530;SDS011;38441;52.894;6.040;2023-02-10T01:48:45;12.38;;;3.40;;
52530;SDS011;38441;52.894;6.040;2023-02-10T01:51:11;11.88;;;3.85;;
52530;SDS011;38441;52.894;6.040;2023-02-10T01:53:38;15.80;;;4.93;;
52530;SDS011;38441;52.894;6.040;2023-02-10T01:56:05;13.35;;;3.63;;
52530;SDS011;38441;52.894;6.040;2023-02-10T01:58:32;10.63;;;3.78;;
52530;SDS011;38441;52.894;6.040;2023-02-10T02:01:02;12.02;;;3.88;;
52530;SDS011;38441;52.894;6.040;2023-02-10T02:03:29;13.52;;;3.78;;
52530;SDS011;38441;52.894;6.040;2023-02-10T02:05:55;11.95;;;4.05;;
52530;SDS011;38441;52.894;6.040;2023-02-10T02:08:25;14.00;;;4.38;;
52530;SDS011;38441;52.894;6.040;2023-02-10T02:10:57;16.02;;;4.28;;
52530;SDS011;38441;52.894;6.040;2023-02-10T02:13:53;10.57;;;3.50;;
52530;SDS011;38441;52.894;6.040;2023-02-10T02:22:31;9.15;;;4.00;;
52530;SDS011;38441;52.894;6.040;2023-02-10T02:33:24;13.00;;;3.65;;
52530;SDS011;38441;52.894;6.040;2023-02-10T02:36:18;17.15;;;4.72;;
52530;SDS011;38441;52.894;6.040;2023-02-10T02:38:48;10.82;;;4.03;;
52530;SDS011;38441;52.894;6.040;2023-02-10T02:41:21;13.98;;;4.22;;
52530;SDS011;38441;52.894;6.040;2023-02-10T02:43:48;13.63;;;3.92;;
52530;SDS011;38441;52.894;6.040;2023-02-10T02:46:22;11.60;;;4.10;;
52530;SDS011;38441;52.894;6.040;2023-02-10T02:48:58;14.30;;;4.07;;
52530;SDS011;38441;52.894;6.040;2023-02-10T02:51:36;12.02;;;3.50;;
52530;SDS011;38441;52.894;6.040;2023-02-10T02:54:25;14.80;;;3.72;;
52530;SDS011;38441;52.894;6.040;2023-02-10T03:00:02;17.67;;;4.38;;
52530;SDS011;38441;52.894;6.040;2023-02-10T03:02:33;9.75;;;3.03;;
52530;SDS011;38441;52.894;6.040;2023-02-10T03:05:01;9.50;;;3.03;;
52530;SDS011;38441;52.894;6.040;2023-02-10T03:07:27;11.95;;;3.40;;
52530;SDS011;38441;52.894;6.040;2023-02-10T03:09:53;12.07;;;3.10;;
52530;SDS011;38441;52.894;6.040;2023-02-10T03:12:19;10.80;;;3.13;;
52530;SDS011;38441;52.894;6.040;2023-02-10T03:14:45;14.65;;;3.58;;
52530;SDS011;38441;52.894;6.040;2023-02-10T03:17:11;12.52;;;4.20;;
52530;SDS011;38441;52.894;6.040;2023-02-10T03:19:37;13.20;;;3.47;;
52530;SDS011;38441;52.894;6.040;2023-02-10T03:22:03;10.35;;;3.03;;
52530;SDS011;38441;52.894;6.040;2023-02-10T03:24:29;11.52;;;3.30;;
52530;SDS011;38441;52.894;6.040;2023-02-10T03:26:55;14.27;;;3.95;;
52530;SDS011;38441;52.894;6.040;2023-02-10T03:29:21;12.10;;;3.50;;
52530;SDS011;38441;52.894;6.040;2023-02-10T03:31:48;11.20;;;3.67;;
52530;SDS011;38441;52.894;6.040;2023-02-10T03:34:15;13.52;;;3.92;;
52530;SDS011;38441;52.894;6.040;2023-02-10T03:36:41;11.18;;;3.40;;
52530;SDS011;38441;52.894;6.040;2023-02-10T03:39:07;8.95;;;3.67;;
52530;SDS011;38441;52.894;6.040;2023-02-10T03:41:33;10.10;;;3.75;;
52530;SDS011;38441;52.894;6.040;2023-02-10T03:43:59;10.63;;;3.40;;
52530;SDS011;38441;52.894;6.040;2023-02-10T03:46:25;12.27;;;3.95;;
52530;SDS011;38441;52.894;6.040;2023-02-10T03:48:51;11.35;;;3.53;;
52530;SDS011;38441;52.894;6.040;2023-02-10T03:51:17;14.52;;;3.80;;
52530;SDS011;38441;52.894;6.040;2023-02-10T03:53:43;10.68;;;4.20;;
52530;SDS011;38441;52.894;6.040;2023-02-10T03:56:09;10.55;;;3.95;;
52530;SDS011;38441;52.894;6.040;2023-02-10T03:58:36;10.70;;;3.88;;
52530;SDS011;38441;52.894;6.040;2023-02-10T04:01:09;11.32;;;3.72;;
52530;SDS011;38441;52.894;6.040;2023-02-10T04:03:35;11.15;;;3.95;;
52530;SDS011;38441;52.894;6.040;2023-02-10T04:06:01;16.52;;;4.25;;
52530;SDS011;38441;52.894;6.040;2023-02-10T04:08:27;13.25;;;4.18;;
52530;SDS011;38441;52.894;6.040;2023-02-10T04:10:53;12.10;;;4.18;;
52530;SDS011;38441;52.894;6.040;2023-02-10T04:13:19;10.45;;;3.95;;
52530;SDS011;38441;52.894;6.040;2023-02-10T04:15:45;15.30;;;4.70;;
52530;SDS011;38441;52.894;6.040;2023-02-10T04:18:13;11.48;;;4.13;;
52530;SDS011;38441;52.894;6.040;2023-02-10T04:20:39;15.52;;;4.28;;
52530;SDS011;38441;52.894;6.040;2023-02-10T04:23:05;14.00;;;4.30;;
52530;SDS011;38441;52.894;6.040;2023-02-10T04:25:31;10.57;;;4.38;;
52530;SDS011;38441;52.894;6.040;2023-02-10T04:27:57;17.35;;;4.35;;
52530;SDS011;38441;52.894;6.040;2023-02-10T04:30:23;11.55;;;4.32;;
52530;SDS011;38441;52.894;6.040;2023-02-10T04:32:49;13.13;;;4.28;;
52530;SDS011;38441;52.894;6.040;2023-02-10T04:35:17;16.48;;;5.00;;
52530;SDS011;38441;52.894;6.040;2023-02-10T04:37:43;14.35;;;5.03;;
52530;SDS011;38441;52.894;6.040;2023-02-10T04:40:09;9.70;;;4.38;;
52530;SDS011;38441;52.894;6.040;2023-02-10T04:42:35;11.48;;;4.28;;
52530;SDS011;38441;52.894;6.040;2023-02-10T04:45:01;10.40;;;4.35;;
52530;SDS011;38441;52.894;6.040;2023-02-10T04:47:28;13.30;;;4.22;;
52530;SDS011;38441;52.894;6.040;2023-02-10T04:49:55;9.07;;;4.47;;
52530;SDS011;38441;52.894;6.040;2023-02-10T04:52:21;13.30;;;4.95;;
52530;SDS011;38441;52.894;6.040;2023-02-10T04:54:47;15.13;;;4.90;;
52530;SDS011;38441;52.894;6.040;2023-02-10T04:57:13;11.02;;;4.25;;
52530;SDS011;38441;52.894;6.040;2023-02-10T04:59:39;13.90;;;4.38;;
52530;SDS011;38441;52.894;6.040;2023-02-10T05:02:05;12.73;;;5.15;;
52530;SDS011;38441;52.894;6.040;2023-02-10T05:04:31;12.07;;;4.30;;
52530;SDS011;38441;52.894;6.040;2023-02-10T05:06:57;13.02;;;4.93;;
52530;SDS011;38441;52.894;6.040;2023-02-10T05:09:24;11.10;;;4.22;;
52530;SDS011;38441;52.894;6.040;2023-02-10T05:11:51;11.15;;;4.30;;
52530;SDS011;38441;52.894;6.040;2023-02-10T05:14:17;14.65;;;5.30;;
52530;SDS011;38441;52.894;6.040;2023-02-10T05:16:43;11.52;;;4.70;;
52530;SDS011;38441;52.894;6.040;2023-02-10T05:19:09;12.10;;;4.43;;
52530;SDS011;38441;52.894;6.040;2023-02-10T05:21:35;13.00;;;4.53;;
52530;SDS011;38441;52.894;6.040;2023-02-10T05:24:02;9.70;;;4.78;;
52530;SDS011;38441;52.894;6.040;2023-02-10T05:26:28;10.43;;;4.35;;
52530;SDS011;38441;52.894;6.040;2023-02-10T05:28:54;11.50;;;4.70;;
52530;SDS011;38441;52.894;6.040;2023-02-10T05:31:20;16.05;;;5.00;;
52530;SDS011;38441;52.894;6.040;2023-02-10T05:33:46;13.15;;;5.00;;
52530;SDS011;38441;52.894;6.040;2023-02-10T05:36:12;8.70;;;4.38;;
52530;SDS011;38441;52.894;6.040;2023-02-10T05:38:38;10.38;;;4.47;;
52530;SDS011;38441;52.894;6.040;2023-02-10T05:41:24;12.27;;;5.25;;
52530;SDS011;38441;52.894;6.040;2023-02-10T05:43:50;11.90;;;4.75;;
52530;SDS011;38441;52.894;6.040;2023-02-10T05:46:16;11.35;;;4.85;;
52530;SDS011;38441;52.894;6.040;2023-02-10T05:48:42;16.67;;;4.85;;
52530;SDS011;38441;52.894;6.040;2023-02-10T05:51:08;13.80;;;5.22;;
52530;SDS011;38441;52.894;6.040;2023-02-10T05:53:34;13.80;;;5.25;;
52530;SDS011;38441;52.894;6.040;2023-02-10T05:56:00;12.77;;;5.30;;
52530;SDS011;38441;52.894;6.040;2023-02-10T05:58:26;11.00;;;4.70;;
52530;SDS011;38441;52.894;6.040;2023-02-10T06:00:52;12.45;;;5.30;;
52530;SDS011;38441;52.894;6.040;2023-02-10T06:03:19;13.75;;;6.20;;
52530;SDS011;38441;52.894;6.040;2023-02-10T06:05:45;15.68;;;5.85;;
52530;SDS011;38441;52.894;6.040;2023-02-10T06:08:11;16.30;;;5.35;;
52530;SDS011;38441;52.894;6.040;2023-02-10T06:10:37;14.60;;;5.22;;
52530;SDS011;38441;52.894;6.040;2023-02-10T06:13:03;17.58;;;6.05;;
52530;SDS011;38441;52.894;6.040;2023-02-10T06:15:29;15.27;;;6.53;;
52530;SDS011;38441;52.894;6.040;2023-02-10T06:17:55;10.68;;;5.88;;
52530;SDS011;38441;52.894;6.040;2023-02-10T06:20:21;14.32;;;6.38;;
52530;SDS011;38441;52.894;6.040;2023-02-10T06:22:47;14.45;;;5.82;;
52530;SDS011;38441;52.894;6.040;2023-02-10T06:25:13;16.02;;;5.82;;
52530;SDS011;38441;52.894;6.040;2023-02-10T06:27:39;16.70;;;5.40;;
52530;SDS011;38441;52.894;6.040;2023-02-10T06:30:05;12.20;;;5.63;;
52530;SDS011;38441;52.894;6.040;2023-02-10T06:32:31;14.98;;;5.63;;
52530;SDS011;38441;52.894;6.040;2023-02-10T06:34:57;12.50;;;6.07;;
52530;SDS011;38441;52.894;6.040;2023-02-10T06:37:23;15.25;;;5.88;;
52530;SDS011;38441;52.894;6.040;2023-02-10T06:39:49;7.90;;;5.53;;
52530;SDS011;38441;52.894;6.040;2023-02-10T06:42:15;18.88;;;6.35;;
52530;SDS011;38441;52.894;6.040;2023-02-10T06:44:41;15.85;;;6.15;;
52530;SDS011;38441;52.894;6.040;2023-02-10T06:47:07;16.23;;;5.88;;
52530;SDS011;38441;52.894;6.040;2023-02-10T06:49:33;15.23;;;6.90;;
52530;SDS011;38441;52.894;6.040;2023-02-10T06:52:00;13.88;;;6.07;;
52530;SDS011;38441;52.894;6.040;2023-02-10T06:54:26;11.30;;;5.85;;
52530;SDS011;38441;52.894;6.040;2023-02-10T06:56:52;13.98;;;6.28;;
52530;SDS011;38441;52.894;6.040;2023-02-10T06:59:18;13.90;;;6.35;;
52530;SDS011;38441;52.894;6.040;2023-02-10T07:01:45;17.20;;;6.70;;
52530;SDS011;38441;52.894;6.040;2023-02-10T07:04:11;17.25;;;6.75;;
52530;SDS011;38441;52.894;6.040;2023-02-10T07:06:38;17.77;;;6.60;;
52530;SDS011;38441;52.894;6.040;2023-02-10T07:09:04;16.83;;;6.55;;
52530;SDS011;38441;52.894;6.040;2023-02-10T07:11:30;14.88;;;6.28;;
52530;SDS011;38441;52.894;6.040;2023-02-10T07:13:56;13.98;;;6.95;;
52530;SDS011;38441;52.894;6.040;2023-02-10T07:16:22;15.30;;;7.05;;
52530;SDS011;38441;52.894;6.040;2023-02-10T07:18:48;14.45;;;6.82;;
52530;SDS011;38441;52.894;6.040;2023-02-10T07:21:15;16.60;;;6.93;;
52530;SDS011;38441;52.894;6.040;2023-02-10T07:23:41;16.70;;;7.28;;
52530;SDS011;38441;52.894;6.040;2023-02-10T07:26:07;15.93;;;7.82;;
52530;SDS011;38441;52.894;6.040;2023-02-10T07:28:34;16.33;;;7.22;;
52530;SDS011;38441;52.894;6.040;2023-02-10T07:31:00;15.00;;;7.32;;
52530;SDS011;38441;52.894;6.040;2023-02-10T07:33:26;16.80;;;7.88;;
52530;SDS011;38441;52.894;6.040;2023-02-10T07:35:53;15.82;;;7.50;;
52530;SDS011;38441;52.894;6.040;2023-02-10T07:38:19;16.38;;;7.22;;
52530;SDS011;38441;52.894;6.040;2023-02-10T07:40:45;18.02;;;7.82;;
52530;SDS011;38441;52.894;6.040;2023-02-10T07:43:11;17.60;;;8.27;;
52530;SDS011;38441;52.894;6.040;2023-02-10T07:45:37;14.60;;;7.10;;
52530;SDS011;38441;52.894;6.040;2023-02-10T07:48:03;13.25;;;7.90;;
52530;SDS011;38441;52.894;6.040;2023-02-10T07:50:30;13.07;;;7.97;;
52530;SDS011;38441;52.894;6.040;2023-02-10T07:52:55;20.85;;;8.77;;
52530;SDS011;38441;52.894;6.040;2023-02-10T07:55:22;15.23;;;8.20;;
52530;SDS011;38441;52.894;6.040;2023-02-10T07:57:48;15.57;;;8.50;;
52530;SDS011;38441;52.894;6.040;2023-02-10T08:00:14;14.88;;;8.73;;
52530;SDS011;38441;52.894;6.040;2023-02-10T08:02:40;16.02;;;8.65;;
52530;SDS011;38441;52.894;6.040;2023-02-10T08:05:06;20.20;;;8.68;;
52530;SDS011;38441;52.894;6.040;2023-02-10T08:07:32;14.30;;;8.40;;
52530;SDS011;38441;52.894;6.040;2023-02-10T08:09:58;18.30;;;8.77;;
52530;SDS011;38441;52.894;6.040;2023-02-10T08:12:24;18.80;;;9.48;;
52530;SDS011;38441;52.894;6.040;2023-02-10T08:14:50;18.13;;;8.98;;
52530;SDS011;38441;52.894;6.040;2023-02-10T08:17:17;20.25;;;9.02;;
52530;SDS011;38441;52.894;6.040;2023-02-10T08:19:43;23.08;;;10.10;;
52530;SDS011;38441;52.894;6.040;2023-02-10T08:22:09;18.00;;;10.10;;
52530;SDS011;38441;52.894;6.040;2023-02-10T08:24:35;21.88;;;11.27;;
52530;SDS011;38441;52.894;6.040;2023-02-10T08:27:01;24.75;;;11.05;;
52530;SDS011;38441;52.894;6.040;2023-02-10T08:29:27;19.83;;;9.93;;
52530;SDS011;38441;52.894;6.040;2023-02-10T08:31:53;17.55;;;9.55;;
52530;SDS011;38441;52.894;6.040;2023-02-10T08:34:19;21.73;;;10.02;;
52530;SDS011;38441;52.894;6.040;2023-02-10T08:36:46;17.58;;;11.43;;
52530;SDS011;38441;52.894;6.040;2023-02-10T08:39:12;22.25;;;10.93;;
52530;SDS011;38441;52.894;6.040;2023-02-10T08:41:39;17.67;;;9.77;;
52530;SDS011;38441;52.894;6.040;2023-02-10T08:44:06;23.70;;;12.57;;
52530;SDS011;38441;52.894;6.040;2023-02-10T08:46:32;19.23;;;10.45;;
52530;SDS011;38441;52.894;6.040;2023-02-10T08:48:58;18.27;;;10.45;;
52530;SDS011;38441;52.894;6.040;2023-02-10T08:51:26;19.60;;;10.75;;
52530;SDS011;38441;52.894;6.040;2023-02-10T08:53:52;19.50;;;11.07;;
52530;SDS011;38441;52.894;6.040;2023-02-10T08:56:20;25.52;;;11.23;;
52530;SDS011;38441;52.894;6.040;2023-02-10T08:58:46;20.00;;;11.10;;
52530;SDS011;38441;52.894;6.040;2023-02-10T09:01:16;25.77;;;10.38;;
52530;SDS011;38441;52.894;6.040;2023-02-10T09:03:43;25.10;;;10.65;;
52530;SDS011;38441;52.894;6.040;2023-02-10T09:08:40;20.65;;;10.40;;
52530;SDS011;38441;52.894;6.040;2023-02-10T09:11:07;23.20;;;10.65;;
52530;SDS011;38441;52.894;6.040;2023-02-10T09:13:33;23.55;;;10.90;;
52530;SDS011;38441;52.894;6.040;2023-02-10T09:15:59;23.02;;;10.85;;
52530;SDS011;38441;52.894;6.040;2023-02-10T09:18:25;17.42;;;10.20;;
52530;SDS011;38441;52.894;6.040;2023-02-10T09:20:51;20.98;;;10.55;;
52530;SDS011;38441;52.894;6.040;2023-02-10T09:23:17;22.40;;;10.65;;
52530;SDS011;38441;52.894;6.040;2023-02-10T09:25:43;22.90;;;11.38;;
52530;SDS011;38441;52.894;6.040;2023-02-10T09:28:09;22.73;;;10.38;;
52530;SDS011;38441;52.894;6.040;2023-02-10T09:30:35;24.05;;;10.95;;
52530;SDS011;38441;52.894;6.040;2023-02-10T09:33:01;25.73;;;11.27;;
52530;SDS011;38441;52.894;6.040;2023-02-10T09:35:27;25.30;;;12.90;;
52530;SDS011;38441;52.894;6.040;2023-02-10T09:37:53;27.63;;;12.82;;
52530;SDS011;38441;52.894;6.040;2023-02-10T09:40:25;28.23;;;12.38;;
52530;SDS011;38441;52.894;6.040;2023-02-10T09:42:59;25.63;;;12.27;;
52530;SDS011;38441;52.894;6.040;2023-02-10T09:45:29;26.70;;;12.93;;
52530;SDS011;38441;52.894;6.040;2023-02-10T09:49:01;23.13;;;11.52;;
52530;SDS011;38441;52.894;6.040;2023-02-10T09:53:38;24.00;;;12.23;;
52530;SDS011;38441;52.894;6.040;2023-02-10T09:56:04;30.67;;;13.52;;
52530;SDS011;38441;52.894;6.040;2023-02-10T09:58:48;23.58;;;13.43;;
52530;SDS011;38441;52.894;6.040;2023-02-10T10:01:19;30.92;;;15.07;;
52530;SDS011;38441;52.894;6.040;2023-02-10T10:03:52;27.73;;;14.18;;
52530;SDS011;38441;52.894;6.040;2023-02-10T10:06:26;29.67;;;14.57;;
52530;SDS011;38441;52.894;6.040;2023-02-10T10:08:59;40.55;;;15.75;;
52530;SDS011;38441;52.894;6.040;2023-02-10T10:11:36;29.75;;;13.73;;
52530;SDS011;38441;52.894;6.040;2023-02-10T10:14:02;31.60;;;13.93;;
52530;SDS011;38441;52.894;6.040;2023-02-10T10:16:38;28.40;;;13.57;;
52530;SDS011;38441;52.894;6.040;2023-02-10T10:19:22;30.52;;;12.65;;
52530;SDS011;38441;52.894;6.040;2023-02-10T10:35:57;35.00;;;13.88;;
52530;SDS011;38441;52.894;6.040;2023-02-10T10:38:31;35.50;;;15.40;;
52530;SDS011;38441;52.894;6.040;2023-02-10T10:41:07;30.02;;;13.57;;
52530;SDS011;38441;52.894;6.040;2023-02-10T10:43:55;22.88;;;11.02;;
52530;SDS011;38441;52.894;6.040;2023-02-10T10:46:58;22.50;;;10.38;;
52530;SDS011;38441;52.894;6.040;2023-02-10T10:49:21;26.85;;;11.00;;
52530;SDS011;38441;52.894;6.040;2023-02-10T10:51:50;28.23;;;11.32;;
52530;SDS011;38441;52.894;6.040;2023-02-10T10:54:24;24.85;;;10.82;;
52530;SDS011;38441;52.894;6.040;2023-02-10T10:56:51;20.95;;;10.63;;
52530;SDS011;38441;52.894;6.040;2023-02-10T10:59:29;25.98;;;11.25;;
52530;SDS011;38441;52.894;6.040;2023-02-10T11:02:11;24.05;;;10.63;;
52530;SDS011;38441;52.894;6.040;2023-02-10T11:04:42;23.48;;;10.07;;
52530;SDS011;38441;52.894;6.040;2023-02-10T11:07:16;25.17;;;10.65;;
52530;SDS011;38441;52.894;6.040;2023-02-10T11:09:52;25.98;;;9.93;;
52530;SDS011;38441;52.894;6.040;2023-02-10T11:12:32;23.02;;;9.07;;
52530;SDS011;38441;52.894;6.040;2023-02-10T11:15:03;22.05;;;8.88;;
52530;SDS011;38441;52.894;6.040;2023-02-10T11:17:51;18.30;;;8.38;;
52530;SDS011;38441;52.894;6.040;2023-02-10T11:20:26;21.48;;;8.90;;
52530;SDS011;38441;52.894;6.040;2023-02-10T11:22:58;23.73;;;8.50;;
52530;SDS011;38441;52.894;6.040;2023-02-10T11:28:00;23.85;;;8.40;;
52530;SDS011;38441;52.894;6.040;2023-02-10T11:30:31;20.77;;;7.28;;
52530;SDS011;38441;52.894;6.040;2023-02-10T11:32:59;23.17;;;7.15;;
52530;SDS011;38441;52.894;6.040;2023-02-10T11:35:26;14.55;;;7.07;;
52530;SDS011;38441;52.894;6.040;2023-02-10T11:37:57;19.58;;;6.53;;
52530;SDS011;38441;52.894;6.040;2023-02-10T11:40:29;17.38;;;6.65;;
52530;SDS011;38441;52.894;6.040;2023-02-10T11:43:11;16.27;;;6.05;;
52530;SDS011;38441;52.894;6.040;2023-02-10T11:45:49;14.45;;;5.25;;
52530;SDS011;38441;52.894;6.040;2023-02-10T11:48:21;18.88;;;5.88;;
52530;SDS011;38441;52.894;6.040;2023-02-10T11:50:48;20.52;;;5.95;;
52530;SDS011;38441;52.894;6.040;2023-02-10T11:53:27;26.95;;;10.13;;
52530;SDS011;38441;52.894;6.040;2023-02-10T11:55:58;17.63;;;7.30;;
52530;SDS011;38441;52.894;6.040;2023-02-10T12:04:02;17.38;;;7.55;;
52530;SDS011;38441;52.894;6.040;2023-02-10T12:12:56;20.70;;;8.13;;
52530;SDS011;38441;52.894;6.040;2023-02-10T12:21:13;18.50;;;6.85;;
52530;SDS011;38441;52.894;6.040;2023-02-10T12:26:29;20.00;;;6.40;;
52530;SDS011;38441;52.894;6.040;2023-02-10T12:32:00;14.55;;;6.07;;
52530;SDS011;38441;52.894;6.040;2023-02-10T12:34:36;13.20;;;6.53;;
52530;SDS011;38441;52.894;6.040;2023-02-10T12:37:18;16.27;;;6.45;;
52530;SDS011;38441;52.894;6.040;2023-02-10T12:39:59;15.20;;;6.30;;
52530;SDS011;38441;52.894;6.040;2023-02-10T12:42:51;16.92;;;6.70;;
52530;SDS011;38441;52.894;6.040;2023-02-10T12:45:25;21.55;;;7.18;;
52530;SDS011;38441;52.894;6.040;2023-02-10T12:51:16;11.52;;;5.90;;
52530;SDS011;38441;52.894;6.040;2023-02-10T12:53:47;17.35;;;6.60;;
52530;SDS011;38441;52.894;6.040;2023-02-10T12:56:23;17.15;;;6.45;;
52530;SDS011;38441;52.894;6.040;2023-02-10T12:59:04;17.73;;;6.70;;
52530;SDS011;38441;52.894;6.040;2023-02-10T13:01:38;18.13;;;6.53;;
52530;SDS011;38441;52.894;6.040;2023-02-10T13:53:25;16.35;;;5.72;;
52530;SDS011;38441;52.894;6.040;2023-02-10T13:56:02;14.30;;;5.72;;
52530;SDS011;38441;52.894;6.040;2023-02-10T14:01:30;16.80;;;5.93;;
52530;SDS011;38441;52.894;6.040;2023-02-10T14:04:06;16.67;;;6.05;;
52530;SDS011;38441;52.894;6.040;2023-02-10T14:06:52;13.02;;;6.07;;
52530;SDS011;38441;52.894;6.040;2023-02-10T14:11:54;15.60;;;6.20;;
52530;SDS011;38441;52.894;6.040;2023-02-10T14:14:29;13.70;;;6.18;;
52530;SDS011;38441;52.894;6.040;2023-02-10T14:19:49;16.60;;;5.80;;
52530;SDS011;38441;52.894;6.040;2023-02-10T14:24:54;13.55;;;5.88;;
52530;SDS011;38441;52.894;6.040;2023-02-10T14:27:24;14.00;;;5.85;;
52530;SDS011;38441;52.894;6.040;2023-02-10T14:29:55;19.30;;;5.68;;
52530;SDS011;38441;52.894;6.040;2023-02-10T14:32:25;17.25;;;5.68;;
52530;SDS011;38441;52.894;6.040;2023-02-10T14:34:56;17.02;;;6.05;;
52530;SDS011;38441;52.894;6.040;2023-02-10T14:37:26;17.42;;;6.68;;
52530;SDS011;38441;52.894;6.040;2023-02-10T14:39:55;14.45;;;7.30;;
52530;SDS011;38441;52.894;6.040;2023-02-10T14:42:28;16.75;;;6.55;;
52530;SDS011;38441;52.894;6.040;2023-02-10T14:44:57;12.35;;;5.82;;
52530;SDS011;38441;52.894;6.040;2023-02-10T14:47:29;15.70;;;5.90;;
52530;SDS011;38441;52.894;6.040;2023-02-10T14:49:59;13.00;;;5.60;;
52530;SDS011;38441;52.894;6.040;2023-02-10T14:52:31;14.02;;;5.28;;
52530;SDS011;38441;52.894;6.040;2023-02-10T15:00:36;23.17;;;6.07;;
52530;SDS011;38441;52.894;6.040;2023-02-10T15:03:04;12.85;;;5.47;;
52530;SDS011;38441;52.894;6.040;2023-02-10T15:05:49;16.23;;;6.38;;
52530;SDS011;38441;52.894;6.040;2023-02-10T15:12:06;11.65;;;5.60;;
52530;SDS011;38441;52.894;6.040;2023-02-10T15:19:37;15.80;;;6.43;;
52530;SDS011;38441;52.894;6.040;2023-02-10T15:22:28;13.75;;;6.22;;
52530;SDS011;38441;52.894;6.040;2023-02-10T15:27:44;15.98;;;6.82;;
52530;SDS011;38441;52.894;6.040;2023-02-10T15:30:28;13.23;;;6.18;;
